Hyannis, MA

8:14 PM EDT on August 18, 2017 (GMT -0400)
Barnstable Municipal-Boardman-Polando Field | | Change Station

Elev 52 ft 41.67 °N, 70.28 °W | Updated 18 minutes ago

Overcast
Overcast
74 °F
Feels Like 74 °F
N
13
Wind Variable Wind from South
Gusts 23 mph

Today
High -- | Low -- °F
--% Chance of Precip.
Yesterday
High -- | Low -- °F
Precip. -- in
Pressure 29.87 in
Visibility 9.0 miles
Clouds Mostly Cloudy 5500 ft
Mostly Cloudy 9000 ft
Overcast 11000 ft
Dew Point 72 °F
Humidity 93%
Rainfall 0.08 in
Snow Depth Not available.
5:52 AM 7:36 PM
Waning Crescent, 10% visible
METAR KHYA 182356Z 18011G20KT 9SM BKN055 BKN090 OVC110 23/22 A2986 RMK AO2 LTG DSNT W RAB42E55 SLP113 P0000 60008 T02330222 10239 20222 56006
Pressure 29.87 in
Visibility 9.0 miles
Clouds Mostly Cloudy 5500 ft
Mostly Cloudy 9000 ft
Overcast 11000 ft
Dew Point 72 °F
Humidity 93%
Rainfall 0.08 in
Snow Depth Not available.
5:52 AM 7:36 PM
Waning Crescent, 10% visible
METAR KHYA 182356Z 18011G20KT 9SM BKN055 BKN090 OVC110 23/22 A2986 RMK AO2 LTG DSNT W RAB42E55 SLP113 P0000 60008 T02330222 10239 20222 56006

Get Severe Weather Alerts

Thanks for signing up!

Be on the lookout for a verification email in your inbox.

You'll start receiving the daily forecast at 6 AM.

×

10-Day Weather Forecast

Almanac

Astronomy

Aug. 18, 2017 Rise Set
Actual Time
Civil Twilight
Nautical Twilight
Astronomical Twilight
Moon
Length of Visible Light
Length of Day
Tomorrow will be .
, % of the Moon is Illuminated

Today's Extremes

State Highs State Lows

Community

WunderPhotos

Category 6

Welcome to Category 6. This is the collective home for Weather Underground's featured writeups by Dr. Jeff Masters (right), Bob Henson (left), Chris Burt, and other regular contributors.

Nearby

Air Quality

  Air Quality AQ Index Pollutant
Not available.

Snow Depth

Station Depth Elevation

Earthquake Activity

City Distance Mag. Time & Date
Minimum magnitude displayed is 2.5.

Coastal Water Temperatures

Place Temperature

Stations

Nearby Weather Stations

Station Location Temp. Windchill Dew Point Humidity Wind Precip. Elev Updated Type
                   

Watches & Warnings

There are currently no watches in effect.